Time;durP1;ratioP1;P1;durP2;ratioP2;P2;SDS_P1;SDS_P2;PMS_P1;PMS_P2;Temp;Humidity;BMP_temperature;BMP_pressure;BME280_temperature;BME280_humidity;BME280_pressure;Samples;Min_cycle;Max_cycle;Signal;HPM_P1;HPM_P2
2023/09/30 00:00:10;0.00;0.00;0.62;0.00;0.00;0.62;4.97;3.00;;;28.40;33.80;;;;;;2292789;39;23300;-65
2023/09/30 00:02:57;0.00;0.00;0.62;0.00;0.00;0.62;3.50;2.30;;;28.40;33.70;;;;;;2264588;61;20388;-64
2023/09/30 00:05:42;0.00;0.00;0.62;0.00;0.00;0.62;4.20;2.33;;;28.30;33.70;;;;;;2264571;61;20388;-64
2023/09/30 00:08:27;0.00;0.00;0.62;0.00;0.00;0.62;6.10;2.97;;;28.30;34.30;;;;;;2264259;61;20482;-64
2023/09/30 00:11:16;0.00;0.00;0.62;0.00;0.00;0.62;3.60;2.70;;;28.30;33.70;;;;;;2264212;61;20379;-68
2023/09/30 00:14:01;0.00;0.00;0.62;0.00;0.00;0.62;4.20;2.20;;;28.30;33.60;;;;;;2264295;61;20466;-65
2023/09/30 00:16:46;0.00;0.00;0.62;0.00;0.00;0.62;4.40;2.53;;;28.30;33.60;;;;;;2264660;61;20427;-65
2023/09/30 00:19:33;0.00;0.00;0.62;0.00;0.00;0.62;5.93;3.00;;;28.30;33.60;;;;;;2263983;61;20368;-65
2023/09/30 00:22:17;0.00;0.00;0.62;0.00;0.00;0.62;4.20;2.43;;;28.30;33.60;;;;;;2261229;61;20380;-67
2023/09/30 00:25:03;0.00;0.00;0.62;0.00;0.00;0.62;4.10;2.37;;;28.30;33.60;;;;;;2264433;61;20368;-65
2023/09/30 00:27:49;0.00;0.00;0.62;0.00;0.00;0.62;4.67;2.57;;;28.30;33.50;;;;;;2261015;61;20427;-64
2023/09/30 00:30:33;0.00;0.00;0.62;0.00;0.00;0.62;4.70;2.50;;;28.30;33.60;;;;;;2261259;61;20442;-64
2023/09/30 00:33:18;0.00;0.00;0.62;0.00;0.00;0.62;5.10;2.67;;;28.30;33.50;;;;;;2264514;61;20407;-64
2023/09/30 00:36:07;0.00;0.00;0.62;0.00;0.00;0.62;3.40;1.90;;;28.30;33.50;;;;;;2264384;61;20372;-65
2023/09/30 00:38:52;0.00;0.00;0.62;0.00;0.00;0.62;5.87;2.93;;;28.30;33.50;;;;;;2264056;61;20410;-64
2023/09/30 00:41:39;0.00;0.00;0.62;0.00;0.00;0.62;4.57;2.73;;;28.20;33.50;;;;;;2264086;61;20486;-64
2023/09/30 00:44:25;0.00;0.00;0.62;0.00;0.00;0.62;6.20;2.80;;;28.20;33.50;;;;;;2264693;61;20372;-62
2023/09/30 00:47:10;0.00;0.00;0.62;0.00;0.00;0.62;4.20;2.90;;;28.20;33.40;;;;;;2264381;61;20406;-64
2023/09/30 00:49:55;0.00;0.00;0.62;0.00;0.00;0.62;5.60;2.30;;;28.20;33.40;;;;;;2264003;61;20825;-63
2023/09/30 00:52:40;0.00;0.00;0.62;0.00;0.00;0.62;4.77;2.60;;;28.20;33.40;;;;;;2264213;61;20360;-64
2023/09/30 00:55:25;0.00;0.00;0.62;0.00;0.00;0.62;7.13;2.80;;;28.20;33.40;;;;;;2264465;61;20426;-64
2023/09/30 00:58:09;0.00;0.00;0.62;0.00;0.00;0.62;4.60;2.60;;;28.20;33.40;;;;;;2263970;61;20416;-64
2023/09/30 01:00:57;0.00;0.00;0.62;0.00;0.00;0.62;4.47;3.10;;;28.20;33.40;;;;;;2264227;61;20386;-65
2023/09/30 01:03:42;0.00;0.00;0.62;0.00;0.00;0.62;6.10;2.90;;;28.20;33.30;;;;;;2264283;61;20392;-64
2023/09/30 01:06:26;0.00;0.00;0.62;0.00;0.00;0.62;3.83;2.67;;;28.20;33.40;;;;;;2261184;61;20376;-64
2023/09/30 01:09:12;0.00;0.00;0.62;0.00;0.00;0.62;5.30;2.83;;;28.20;33.30;;;;;;2260659;61;20774;-65
2023/09/30 01:11:57;0.00;0.00;0.62;0.00;0.00;0.62;4.37;2.87;;;28.10;33.20;;;;;;2264091;61;20396;-64
2023/09/30 01:14:42;0.00;0.00;0.62;0.00;0.00;0.62;4.80;2.57;;;28.10;33.20;;;;;;2261038;61;20360;-65
2023/09/30 01:17:29;0.00;0.00;0.62;0.00;0.00;0.62;4.63;2.70;;;28.10;33.20;;;;;;2264471;61;20438;-65
2023/09/30 01:20:16;0.00;0.00;0.62;0.00;0.00;0.62;3.97;2.60;;;28.10;33.20;;;;;;2263875;61;20416;-64
2023/09/30 01:23:03;0.00;0.00;0.62;0.00;0.00;0.62;5.83;2.80;;;28.10;33.20;;;;;;2264995;61;20427;-65
2023/09/30 01:25:49;0.00;0.00;0.62;0.00;0.00;0.62;6.10;2.90;;;28.10;33.20;;;;;;2261561;61;20372;-65
2023/09/30 01:28:34;0.00;0.00;0.62;0.00;0.00;0.62;4.57;2.57;;;28.10;33.10;;;;;;2264709;61;20387;-64
2023/09/30 01:31:19;0.00;0.00;0.62;0.00;0.00;0.62;4.93;2.80;;;28.10;33.10;;;;;;2264644;61;20380;-65
2023/09/30 01:34:03;0.00;0.00;0.62;0.00;0.00;0.62;5.00;2.80;;;28.10;33.10;;;;;;2264956;61;20392;-65
2023/09/30 01:36:49;0.00;0.00;0.62;0.00;0.00;0.62;6.43;3.00;;;28.10;33.10;;;;;;2261329;61;20360;-64
2023/09/30 01:39:36;0.00;0.00;0.62;0.00;0.00;0.62;4.67;2.83;;;28.10;33.10;;;;;;2264819;61;20588;-65
2023/09/30 01:42:21;0.00;0.00;0.62;0.00;0.00;0.62;6.33;3.47;;;28.10;33.10;;;;;;2250798;61;20405;-66
2023/09/30 01:45:07;0.00;0.00;0.62;0.00;0.00;0.62;3.87;2.20;;;28.10;33.10;;;;;;2258675;61;20422;-64
2023/09/30 01:47:52;0.00;0.00;0.62;0.00;0.00;0.62;5.63;2.70;;;28.10;33.10;;;;;;2261381;61;20414;-63
2023/09/30 01:50:38;0.00;0.00;0.62;0.00;0.00;0.62;4.63;2.73;;;28.10;33.70;;;;;;2263843;61;20395;-64
2023/09/30 01:53:22;0.00;0.00;0.62;0.00;0.00;0.62;4.43;2.40;;;28.10;33.00;;;;;;2264763;61;20359;-65
2023/09/30 01:56:08;0.00;0.00;0.62;0.00;0.00;0.62;5.43;2.80;;;28.10;33.00;;;;;;2260830;61;20464;-65
2023/09/30 01:58:53;0.00;0.00;0.62;0.00;0.00;0.62;4.70;2.30;;;28.00;32.90;;;;;;2257251;61;20377;-65
2023/09/30 02:01:37;0.00;0.00;0.62;0.00;0.00;0.62;5.43;2.80;;;28.10;32.90;;;;;;2257721;61;20492;-64
2023/09/30 02:04:23;0.00;0.00;0.62;0.00;0.00;0.62;6.03;3.03;;;28.00;32.90;;;;;;2260839;61;20381;-65
2023/09/30 02:07:07;0.00;0.00;0.62;0.00;0.00;0.62;5.07;3.00;;;28.00;32.90;;;;;;2260922;61;20365;-65
2023/09/30 02:13:05;0.00;0.00;0.62;0.00;0.00;0.62;4.90;2.63;;;28.10;32.90;;;;;;2262235;61;20498;-65
2023/09/30 02:15:50;0.00;0.00;0.62;0.00;0.00;0.62;4.57;2.60;;;28.00;33.50;;;;;;2260315;61;20373;-65
2023/09/30 02:18:35;0.00;0.00;0.62;0.00;0.00;0.62;6.20;3.07;;;28.00;32.80;;;;;;2260273;61;20889;-64
2023/09/30 02:21:21;0.00;0.00;0.62;0.00;0.00;0.62;3.93;2.43;;;28.00;32.70;;;;;;2263412;61;20379;-64
2023/09/30 02:24:07;0.00;0.00;0.62;0.00;0.00;0.62;4.40;2.70;;;28.00;32.70;;;;;;2264765;61;20954;-64
2023/09/30 02:26:51;0.00;0.00;0.62;0.00;0.00;0.62;5.23;3.00;;;28.00;32.70;;;;;;2264893;61;20364;-64
2023/09/30 02:29:38;0.00;0.00;0.62;0.00;0.00;0.62;3.60;2.00;;;28.00;32.60;;;;;;2264491;61;20391;-65
2023/09/30 02:32:24;0.00;0.00;0.62;0.00;0.00;0.62;4.43;2.60;;;28.00;32.60;;;;;;2264502;61;20595;-64
2023/09/30 02:35:13;0.00;0.00;0.62;0.00;0.00;0.62;5.40;2.63;;;28.00;33.30;;;;;;2264336;61;20360;-64
2023/09/30 02:37:58;0.00;0.00;0.62;0.00;0.00;0.62;7.27;2.57;;;28.00;32.60;;;;;;2264285;61;20822;-64
2023/09/30 02:40:46;0.00;0.00;0.62;0.00;0.00;0.62;5.40;2.60;;;27.90;32.50;;;;;;2264675;61;20468;-64
2023/09/30 02:43:32;0.00;0.00;0.62;0.00;0.00;0.62;4.73;2.40;;;27.90;32.50;;;;;;2264580;61;20482;-65
2023/09/30 02:46:18;0.00;0.00;0.62;0.00;0.00;0.62;3.47;2.40;;;27.90;32.50;;;;;;2264812;61;20372;-64
2023/09/30 02:49:04;0.00;0.00;0.62;0.00;0.00;0.62;4.10;2.67;;;27.90;32.50;;;;;;2264212;61;20376;-64
2023/09/30 02:51:50;0.00;0.00;0.62;0.00;0.00;0.62;4.50;2.30;;;27.90;32.40;;;;;;2261578;61;20835;-64
2023/09/30 02:54:34;0.00;0.00;0.62;0.00;0.00;0.62;6.03;2.50;;;27.90;32.50;;;;;;2261231;61;20458;-65
2023/09/30 02:57:19;0.00;0.00;0.62;0.00;0.00;0.62;4.40;2.20;;;27.90;32.40;;;;;;2264720;61;20363;-65
2023/09/30 03:00:23;0.00;0.00;0.62;0.00;0.00;0.62;3.07;2.03;;;27.90;32.40;;;;;;2264319;61;20903;-64
2023/09/30 03:03:09;0.00;0.00;0.62;0.00;0.00;0.62;4.50;2.83;;;27.90;32.40;;;;;;2261328;61;20375;-63
2023/09/30 03:05:54;0.00;0.00;0.62;0.00;0.00;0.62;5.30;2.57;;;27.90;32.40;;;;;;2264895;61;20798;-68
2023/09/30 03:08:38;0.00;0.00;0.62;0.00;0.00;0.62;4.23;2.70;;;27.90;32.40;;;;;;2264133;61;20415;-65
2023/09/30 03:13:59;0.00;0.00;0.62;0.00;0.00;0.62;4.87;2.50;;;27.90;32.30;;;;;;2266471;61;20446;-63
2023/09/30 03:16:44;0.00;0.00;0.62;0.00;0.00;0.62;3.23;2.20;;;27.80;32.20;;;;;;2264766;61;20403;-64
2023/09/30 03:19:30;0.00;0.00;0.62;0.00;0.00;0.62;5.67;2.80;;;27.80;32.20;;;;;;2264502;61;20364;-64
2023/09/30 03:22:15;0.00;0.00;0.62;0.00;0.00;0.62;4.10;2.50;;;27.80;32.20;;;;;;2260717;61;20412;-64
2023/09/30 03:25:00;0.00;0.00;0.62;0.00;0.00;0.62;5.20;2.60;;;27.90;32.20;;;;;;2260535;61;20401;-64
2023/09/30 03:27:48;0.00;0.00;0.62;0.00;0.00;0.62;4.10;2.30;;;27.80;32.10;;;;;;2260469;61;20365;-64
2023/09/30 03:30:36;0.00;0.00;0.62;0.00;0.00;0.62;4.20;2.10;;;27.80;32.10;;;;;;2324759;39;20402;-64
2023/09/30 03:33:20;0.00;0.00;0.62;0.00;0.00;0.62;4.93;2.47;;;27.80;32.10;;;;;;2270374;61;20375;-64
2023/09/30 03:36:09;0.00;0.00;0.62;0.00;0.00;0.62;6.53;2.80;;;27.80;31.90;;;;;;2268692;61;20454;-65
2023/09/30 03:38:59;0.00;0.00;0.62;0.00;0.00;0.62;5.03;2.10;;;27.80;31.90;;;;;;2268251;61;20737;-64
2023/09/30 03:41:44;0.00;0.00;0.62;0.00;0.00;0.62;3.37;2.20;;;27.80;31.90;;;;;;2268325;61;20391;-64
2023/09/30 03:44:29;0.00;0.00;0.62;0.00;0.00;0.62;5.30;2.60;;;27.80;31.90;;;;;;2268334;61;20441;-64
2023/09/30 03:47:14;0.00;0.00;0.62;0.00;0.00;0.62;6.20;3.03;;;27.80;32.00;;;;;;2268517;61;20417;-64
2023/09/30 03:50:03;0.00;0.00;0.62;0.00;0.00;0.62;3.63;1.97;;;27.80;31.90;;;;;;2328184;39;20386;31
2023/09/30 03:52:49;0.00;0.00;0.62;0.00;0.00;0.62;7.70;2.87;;;27.80;31.90;;;;;;2258256;61;20467;-64
2023/09/30 03:55:34;0.00;0.00;0.62;0.00;0.00;0.62;4.73;2.57;;;27.80;31.90;;;;;;2256491;61;21023;-65
2023/09/30 03:58:19;0.00;0.00;0.62;0.00;0.00;0.62;4.37;2.90;;;27.80;31.90;;;;;;2256287;61;20442;-64
2023/09/30 04:01:04;0.00;0.00;0.62;0.00;0.00;0.62;4.63;2.43;;;27.70;31.90;;;;;;2256656;61;20475;-68
2023/09/30 04:03:48;0.00;0.00;0.62;0.00;0.00;0.62;5.97;2.47;;;27.70;31.90;;;;;;2256640;61;20394;-65
2023/09/30 04:06:33;0.00;0.00;0.62;0.00;0.00;0.62;5.40;2.70;;;27.70;31.90;;;;;;2256144;61;20373;-64
2023/09/30 04:09:19;0.00;0.00;0.62;0.00;0.00;0.62;4.23;2.60;;;27.70;31.90;;;;;;2255593;61;20524;-65
2023/09/30 04:12:05;0.00;0.00;0.62;0.00;0.00;0.62;5.20;2.27;;;27.70;31.90;;;;;;2256437;61;20777;-64
2023/09/30 04:14:51;0.00;0.00;0.62;0.00;0.00;0.62;3.83;2.50;;;27.70;31.90;;;;;;2256523;61;20403;-64
2023/09/30 04:17:37;0.00;0.00;0.62;0.00;0.00;0.62;5.17;2.63;;;27.70;31.90;;;;;;2256407;61;20415;-65
2023/09/30 04:20:23;0.00;0.00;0.62;0.00;0.00;0.62;5.60;2.90;;;27.70;31.90;;;;;;2293148;39;20906;-64
2023/09/30 04:23:09;0.00;0.00;0.62;0.00;0.00;0.62;3.90;2.70;;;27.70;31.90;;;;;;2264319;61;20870;-64
2023/09/30 04:25:55;0.00;0.00;0.62;0.00;0.00;0.62;4.70;2.60;;;27.70;31.90;;;;;;2264659;61;20372;-64
2023/09/30 04:28:40;0.00;0.00;0.62;0.00;0.00;0.62;5.30;2.67;;;27.70;31.90;;;;;;2268164;61;20412;-64
2023/09/30 04:31:24;0.00;0.00;0.62;0.00;0.00;0.62;5.17;2.87;;;27.70;31.90;;;;;;2268401;61;20422;-64
2023/09/30 04:34:09;0.00;0.00;0.62;0.00;0.00;0.62;6.43;2.50;;;27.70;31.90;;;;;;2268713;61;20366;-68
2023/09/30 04:36:53;0.00;0.00;0.62;0.00;0.00;0.62;4.40;2.53;;;27.60;31.80;;;;;;2268544;61;20383;-64
2023/09/30 04:39:38;0.00;0.00;0.62;0.00;0.00;0.62;4.13;2.67;;;27.60;31.80;;;;;;2264539;61;20366;-68
2023/09/30 04:42:25;0.00;0.00;0.62;0.00;0.00;0.62;3.97;2.40;;;27.60;31.80;;;;;;2268470;61;20455;-64
2023/09/30 04:45:12;0.00;0.00;0.62;0.00;0.00;0.62;4.33;2.63;;;27.60;31.80;;;;;;2268197;61;20367;-64
2023/09/30 04:47:57;0.00;0.00;0.62;0.00;0.00;0.62;5.37;3.17;;;27.60;31.80;;;;;;2268134;61;20945;-65
2023/09/30 04:50:41;0.00;0.00;0.62;0.00;0.00;0.62;4.80;2.30;;;27.60;31.80;;;;;;2268479;61;20378;-64
2023/09/30 04:53:26;0.00;0.00;0.62;0.00;0.00;0.62;4.40;2.30;;;27.60;31.80;;;;;;2268219;61;20416;-64
2023/09/30 04:56:11;0.00;0.00;0.62;0.00;0.00;0.62;4.77;2.37;;;27.60;31.80;;;;;;2272242;61;20462;-64
2023/09/30 04:58:58;0.00;0.00;0.62;0.00;0.00;0.62;5.00;2.30;;;27.60;31.80;;;;;;2272225;61;20403;-64
2023/09/30 05:01:43;0.00;0.00;0.62;0.00;0.00;0.62;5.60;2.10;;;27.60;31.80;;;;;;2272247;61;20378;-63
2023/09/30 05:04:29;0.00;0.00;0.62;0.00;0.00;0.62;4.00;2.30;;;27.60;31.80;;;;;;2272470;61;20401;-62
2023/09/30 05:07:14;0.00;0.00;0.62;0.00;0.00;0.62;6.67;3.00;;;27.60;31.80;;;;;;2272360;61;20361;-64
2023/09/30 05:10:05;0.00;0.00;0.62;0.00;0.00;0.62;3.60;2.00;;;27.60;31.80;;;;;;2271985;61;20470;-65
2023/09/30 05:12:53;0.00;0.00;0.62;0.00;0.00;0.62;4.47;2.40;;;27.60;31.80;;;;;;2272397;61;20809;-63
2023/09/30 05:15:41;0.00;0.00;0.62;0.00;0.00;0.62;5.60;2.70;;;27.60;31.80;;;;;;2272350;61;20509;-63
2023/09/30 05:18:26;0.00;0.00;0.62;0.00;0.00;0.62;5.37;3.10;;;27.60;31.80;;;;;;2272127;61;20439;-63
2023/09/30 05:21:11;0.00;0.00;0.62;0.00;0.00;0.62;5.33;3.17;;;27.60;31.80;;;;;;2272695;61;20386;-64
2023/09/30 05:23:56;0.00;0.00;0.62;0.00;0.00;0.62;5.37;3.10;;;27.50;31.70;;;;;;2269046;61;20817;-67
2023/09/30 05:26:40;0.00;0.00;0.62;0.00;0.00;0.62;6.67;3.33;;;27.50;31.70;;;;;;2269318;61;20983;-63
2023/09/30 05:29:25;0.00;0.00;0.62;0.00;0.00;0.62;5.33;3.47;;;27.50;31.70;;;;;;2272062;61;20421;-66
2023/09/30 05:32:11;0.00;0.00;0.62;0.00;0.00;0.62;5.20;3.33;;;27.50;31.70;;;;;;2272557;61;20366;-63
2023/09/30 05:34:55;0.00;0.00;0.62;0.00;0.00;0.62;6.30;3.80;;;27.50;31.80;;;;;;2272345;61;20370;-64
2023/09/30 05:37:40;0.00;0.00;0.62;0.00;0.00;0.62;6.67;3.97;;;27.50;31.70;;;;;;2272481;61;20694;-64
2023/09/30 05:40:26;0.00;0.00;0.62;0.00;0.00;0.62;7.83;3.70;;;27.50;31.70;;;;;;2272601;61;20389;-63
2023/09/30 05:43:13;0.00;0.00;0.62;0.00;0.00;0.62;6.27;3.60;;;27.50;31.70;;;;;;2272446;61;20397;-64
2023/09/30 05:45:58;0.00;0.00;0.62;0.00;0.00;0.62;5.87;3.67;;;27.50;31.70;;;;;;2272126;61;20412;-64
2023/09/30 05:48:44;0.00;0.00;0.62;0.00;0.00;0.62;6.10;3.90;;;27.50;31.80;;;;;;2271998;61;21005;-66
2023/09/30 05:51:29;0.00;0.00;0.62;0.00;0.00;0.62;5.53;3.40;;;27.50;31.70;;;;;;2272522;61;20382;-66
2023/09/30 05:54:13;0.00;0.00;0.62;0.00;0.00;0.62;6.10;3.70;;;27.50;31.70;;;;;;2271781;61;20373;-66
2023/09/30 05:57:00;0.00;0.00;0.62;0.00;0.00;0.62;5.90;3.50;;;27.50;31.70;;;;;;2268318;61;20358;-66
2023/09/30 05:59:46;0.00;0.00;0.62;0.00;0.00;0.62;5.53;3.57;;;27.50;31.80;;;;;;2267759;61;20370;-66
2023/09/30 06:02:30;0.00;0.00;0.62;0.00;0.00;0.62;5.13;3.20;;;27.50;31.80;;;;;;2265079;61;20767;-65
2023/09/30 06:05:18;0.00;0.00;0.62;0.00;0.00;0.62;5.03;3.00;;;27.50;31.70;;;;;;2268447;61;20497;-64
2023/09/30 06:08:04;0.00;0.00;0.62;0.00;0.00;0.62;4.37;3.13;;;27.40;31.70;;;;;;2268215;61;20411;-63
2023/09/30 06:13:46;0.00;0.00;0.62;0.00;0.00;0.62;6.30;3.43;;;27.50;31.70;;;;;;2274853;61;20418;-64
2023/09/30 06:16:31;0.00;0.00;0.62;0.00;0.00;0.62;4.10;2.70;;;27.50;31.70;;;;;;2272999;61;20415;-64
2023/09/30 06:19:16;0.00;0.00;0.62;0.00;0.00;0.62;5.87;3.13;;;27.40;31.70;;;;;;2272816;61;20358;-64
2023/09/30 06:22:02;0.00;0.00;0.62;0.00;0.00;0.62;6.30;3.20;;;27.40;31.70;;;;;;2276831;60;20916;-64
2023/09/30 06:24:48;0.00;0.00;0.62;0.00;0.00;0.62;4.03;2.70;;;27.50;31.70;;;;;;2277131;60;20357;-67
2023/09/30 06:27:33;0.00;0.00;0.62;0.00;0.00;0.62;6.17;2.87;;;27.40;31.70;;;;;;2277117;60;20393;-64
2023/09/30 06:30:20;0.00;0.00;0.62;0.00;0.00;0.62;4.83;2.93;;;27.40;31.70;;;;;;2276764;60;20912;-67
2023/09/30 06:33:05;0.00;0.00;0.62;0.00;0.00;0.62;5.60;3.37;;;27.40;31.70;;;;;;2277225;60;20354;-64
2023/09/30 06:35:50;0.00;0.00;0.62;0.00;0.00;0.62;5.97;2.70;;;27.40;31.70;;;;;;2276997;60;20361;-64
2023/09/30 06:38:37;0.00;0.00;0.62;0.00;0.00;0.62;5.00;2.93;;;27.40;31.70;;;;;;2276452;60;20398;-64
2023/09/30 06:41:22;0.00;0.00;0.62;0.00;0.00;0.62;5.40;3.00;;;27.40;31.70;;;;;;2276751;60;20524;-72
2023/09/30 06:44:07;0.00;0.00;0.62;0.00;0.00;0.62;5.07;2.70;;;27.40;31.70;;;;;;2276808;60;20812;-65
2023/09/30 06:46:51;0.00;0.00;0.62;0.00;0.00;0.62;5.57;2.63;;;27.40;31.70;;;;;;2276905;60;20361;-65
2023/09/30 06:49:36;0.00;0.00;0.62;0.00;0.00;0.62;4.93;3.00;;;27.40;31.70;;;;;;2276638;60;20365;-64
2023/09/30 06:52:20;0.00;0.00;0.62;0.00;0.00;0.62;5.43;2.67;;;27.40;31.70;;;;;;2276962;60;20388;-64
2023/09/30 06:55:08;0.00;0.00;0.62;0.00;0.00;0.62;5.67;3.40;;;27.40;31.70;;;;;;2276987;60;20370;-64
2023/09/30 06:57:52;0.00;0.00;0.62;0.00;0.00;0.62;4.57;2.80;;;27.40;31.70;;;;;;2276755;60;20365;-66
2023/09/30 07:00:37;0.00;0.00;0.62;0.00;0.00;0.62;4.37;3.00;;;27.40;31.70;;;;;;2273620;60;20373;-67
2023/09/30 07:03:22;0.00;0.00;0.62;0.00;0.00;0.62;4.23;2.63;;;27.40;31.70;;;;;;2276779;60;20385;-62
2023/09/30 07:06:07;0.00;0.00;0.62;0.00;0.00;0.62;3.90;2.47;;;27.40;31.70;;;;;;2276750;60;20355;-64
2023/09/30 07:08:52;0.00;0.00;0.62;0.00;0.00;0.62;5.80;2.90;;;27.40;31.70;;;;;;2276703;60;20487;-67
2023/09/30 07:11:38;0.00;0.00;0.62;0.00;0.00;0.62;6.07;2.93;;;27.40;31.70;;;;;;2273680;60;20381;-63
2023/09/30 07:14:22;0.00;0.00;0.62;0.00;0.00;0.62;4.17;2.97;;;27.40;31.70;;;;;;2277091;60;20357;-63
2023/09/30 07:17:07;0.00;0.00;0.62;0.00;0.00;0.62;5.50;2.87;;;27.40;31.70;;;;;;2273623;60;20361;-63
2023/09/30 07:19:52;0.00;0.00;0.62;0.00;0.00;0.62;4.20;2.57;;;27.40;31.70;;;;;;2276695;60;20432;-63
2023/09/30 07:22:37;0.00;0.00;0.62;0.00;0.00;0.62;3.10;2.23;;;27.40;31.70;;;;;;2276715;60;20361;-63
2023/09/30 07:25:22;0.00;0.00;0.62;0.00;0.00;0.62;4.13;2.07;;;27.40;31.70;;;;;;2276828;60;20357;-63
2023/09/30 07:28:11;0.00;0.00;0.62;0.00;0.00;0.62;4.70;2.80;;;27.40;31.70;;;;;;2276311;60;20362;-64
2023/09/30 07:30:56;0.00;0.00;0.62;0.00;0.00;0.62;4.10;2.87;;;27.40;31.70;;;;;;2276856;60;20382;-63
2023/09/30 07:33:41;0.00;0.00;0.62;0.00;0.00;0.62;4.07;2.30;;;27.40;31.70;;;;;;2276687;60;20354;-64
2023/09/30 07:36:25;0.00;0.00;0.62;0.00;0.00;0.62;3.77;2.63;;;27.40;31.70;;;;;;2276211;60;20369;-63
2023/09/30 07:39:10;0.00;0.00;0.62;0.00;0.00;0.62;4.50;2.60;;;27.40;31.70;;;;;;2276550;60;20365;-63
2023/09/30 07:41:54;0.00;0.00;0.62;0.00;0.00;0.62;6.00;2.90;;;27.40;31.70;;;;;;2276825;60;20400;-63
2023/09/30 07:44:41;0.00;0.00;0.62;0.00;0.00;0.62;4.33;2.27;;;27.40;31.70;;;;;;2276599;60;20928;-63
2023/09/30 07:47:26;0.00;0.00;0.62;0.00;0.00;0.62;5.77;2.70;;;27.40;31.70;;;;;;2276734;60;20754;-63
2023/09/30 07:50:12;0.00;0.00;0.62;0.00;0.00;0.62;4.10;2.83;;;27.40;31.70;;;;;;2276252;60;20388;-61
2023/09/30 07:52:58;0.00;0.00;0.62;0.00;0.00;0.62;4.17;2.40;;;27.30;31.60;;;;;;2276864;60;20935;-63
2023/09/30 07:55:43;0.00;0.00;0.62;0.00;0.00;0.62;5.20;2.73;;;27.40;31.70;;;;;;2273825;60;20772;-63
2023/09/30 07:58:28;0.00;0.00;0.62;0.00;0.00;0.62;5.30;2.90;;;27.30;31.60;;;;;;2272556;61;20450;-63
2023/09/30 08:01:14;0.00;0.00;0.62;0.00;0.00;0.62;4.27;2.30;;;27.30;31.60;;;;;;2273035;61;20382;-64
2023/09/30 08:03:59;0.00;0.00;0.62;0.00;0.00;0.62;3.67;2.13;;;27.30;31.60;;;;;;2272572;61;20404;-64
2023/09/30 08:06:44;0.00;0.00;0.62;0.00;0.00;0.62;2.60;1.77;;;27.30;31.60;;;;;;2273039;61;20365;-66
2023/09/30 08:09:28;0.00;0.00;0.62;0.00;0.00;0.62;4.60;2.80;;;27.40;31.70;;;;;;2272468;61;20415;-63
2023/09/30 08:12:13;0.00;0.00;0.62;0.00;0.00;0.62;3.60;2.30;;;27.30;31.60;;;;;;2272523;61;20366;-60
2023/09/30 08:14:57;0.00;0.00;0.62;0.00;0.00;0.62;6.43;2.60;;;27.40;31.70;;;;;;2272874;61;20446;-64
2023/09/30 08:17:44;0.00;0.00;0.62;0.00;0.00;0.62;3.47;2.40;;;27.40;31.70;;;;;;2272815;61;20841;-64
2023/09/30 08:20:30;0.00;0.00;0.62;0.00;0.00;0.62;3.63;2.20;;;27.40;31.70;;;;;;2272552;61;20957;-64
2023/09/30 08:23:14;0.00;0.00;0.62;0.00;0.00;0.62;4.67;2.50;;;27.40;31.70;;;;;;2272645;61;20432;-65
2023/09/30 08:25:59;0.00;0.00;0.62;0.00;0.00;0.62;6.00;2.57;;;27.40;31.70;;;;;;2272584;61;20350;-65
2023/09/30 08:28:44;0.00;0.00;0.62;0.00;0.00;0.62;3.87;2.20;;;27.40;31.70;;;;;;2272276;61;20908;-64
2023/09/30 08:31:28;0.00;0.00;0.62;0.00;0.00;0.62;5.00;2.50;;;27.40;31.70;;;;;;2272593;61;20451;-64
2023/09/30 08:34:14;0.00;0.00;0.62;0.00;0.00;0.62;4.90;2.37;;;27.40;31.70;;;;;;2272199;61;20370;-65
2023/09/30 08:36:59;0.00;0.00;0.62;0.00;0.00;0.62;3.77;2.27;;;27.40;31.70;;;;;;2272702;61;20385;-64
2023/09/30 08:39:43;0.00;0.00;0.62;0.00;0.00;0.62;4.67;2.60;;;27.40;31.70;;;;;;2272140;61;20772;-66
2023/09/30 08:42:32;0.00;0.00;0.62;0.00;0.00;0.62;5.73;2.93;;;27.40;31.70;;;;;;2272522;61;20825;-65
2023/09/30 08:45:17;0.00;0.00;0.62;0.00;0.00;0.62;4.77;2.27;;;27.40;31.70;;;;;;2272813;61;20381;-65
2023/09/30 08:48:05;0.00;0.00;0.62;0.00;0.00;0.62;3.87;2.13;;;27.40;31.70;;;;;;2272401;61;20404;-65
2023/09/30 08:50:52;0.00;0.00;0.62;0.00;0.00;0.62;4.33;2.57;;;27.50;31.70;;;;;;2272504;61;20393;-64
2023/09/30 08:53:37;0.00;0.00;0.62;0.00;0.00;0.62;3.60;2.30;;;27.40;31.70;;;;;;2272284;60;20873;-65
2023/09/30 08:56:27;0.00;0.00;0.62;0.00;0.00;0.62;3.30;1.87;;;27.40;31.70;;;;;;2615788;45;20394;-64
2023/09/30 08:59:12;0.00;0.00;0.62;0.00;0.00;0.62;3.07;2.27;;;27.40;31.70;;;;;;2272116;61;20358;-65
2023/09/30 09:01:58;0.00;0.00;0.62;0.00;0.00;0.62;4.03;2.10;;;27.40;31.70;;;;;;2272220;61;20401;-66
2023/09/30 09:04:43;0.00;0.00;0.62;0.00;0.00;0.62;4.37;2.80;;;27.40;31.70;;;;;;2272227;61;20423;-66
2023/09/30 09:07:30;0.00;0.00;0.62;0.00;0.00;0.62;3.93;2.50;;;27.40;31.70;;;;;;2272359;61;20366;-66
2023/09/30 09:10:15;0.00;0.00;0.62;0.00;0.00;0.62;4.27;2.23;;;27.50;31.80;;;;;;2271670;60;20394;-65
2023/09/30 09:12:59;0.00;0.00;0.62;0.00;0.00;0.62;5.23;2.80;;;27.40;31.70;;;;;;2272269;61;20419;-66
2023/09/30 09:15:44;0.00;0.00;0.62;0.00;0.00;0.62;5.10;2.27;;;27.50;31.80;;;;;;2272504;61;20408;-65
2023/09/30 09:18:38;0.00;0.00;0.62;0.00;0.00;0.62;4.67;2.93;;;27.50;31.80;;;;;;2272055;61;20366;-63
2023/09/30 09:21:25;0.00;0.00;0.62;0.00;0.00;0.62;4.70;2.43;;;27.50;31.80;;;;;;2272435;61;20466;-67
2023/09/30 09:24:26;0.00;0.00;0.62;0.00;0.00;0.62;4.23;2.37;;;27.50;31.80;;;;;;2271780;61;20703;-65
2023/09/30 09:27:16;0.00;0.00;0.62;0.00;0.00;0.62;2.60;1.93;;;27.50;31.90;;;;;;2272359;61;20425;-65
2023/09/30 09:30:16;0.00;0.00;0.62;0.00;0.00;0.62;4.97;2.40;;;27.50;31.80;;;;;;2271526;61;20382;-66
2023/09/30 09:33:04;0.00;0.00;0.62;0.00;0.00;0.62;4.50;2.53;;;27.60;32.00;;;;;;2271992;61;20354;-66
2023/09/30 09:35:49;0.00;0.00;0.62;0.00;0.00;0.62;3.50;2.10;;;27.50;31.80;;;;;;2272149;61;20695;-64
2023/09/30 09:38:44;0.00;0.00;0.62;0.00;0.00;0.62;4.37;2.43;;;27.50;31.80;;;;;;2272010;61;20451;-66
2023/09/30 09:41:30;0.00;0.00;0.62;0.00;0.00;0.62;3.10;2.00;;;27.60;31.90;;;;;;2272172;60;20420;-65
2023/09/30 09:44:16;0.00;0.00;0.62;0.00;0.00;0.62;5.23;2.67;;;27.60;31.90;;;;;;2272562;61;20442;-66
2023/09/30 09:47:04;0.00;0.00;0.62;0.00;0.00;0.62;3.77;2.17;;;27.60;31.80;;;;;;2272971;61;20358;-65
2023/09/30 09:49:51;0.00;0.00;0.62;0.00;0.00;0.62;2.60;2.00;;;27.60;31.90;;;;;;2272478;61;20813;-65
2023/09/30 09:52:39;0.00;0.00;0.62;0.00;0.00;0.62;3.20;2.03;;;27.60;31.90;;;;;;2273223;61;20818;-65
2023/09/30 09:55:25;0.00;0.00;0.62;0.00;0.00;0.62;3.93;2.33;;;27.60;31.80;;;;;;2271037;61;20389;-63
2023/09/30 09:58:14;0.00;0.00;0.62;0.00;0.00;0.62;4.50;2.50;;;27.60;31.90;;;;;;2272711;61;20405;-65
2023/09/30 10:01:00;0.00;0.00;0.62;0.00;0.00;0.62;3.77;2.70;;;27.60;31.90;;;;;;2269672;61;20536;-64
2023/09/30 10:03:45;0.00;0.00;0.62;0.00;0.00;0.62;5.70;2.43;;;27.60;31.90;;;;;;2269399;61;20481;-74
2023/09/30 10:06:29;0.00;0.00;0.62;0.00;0.00;0.62;3.87;2.60;;;27.70;32.00;;;;;;2273218;61;20416;-64
2023/09/30 10:09:16;0.00;0.00;0.62;0.00;0.00;0.62;3.27;2.10;;;27.70;32.00;;;;;;2272714;61;20362;-64
2023/09/30 10:12:01;0.00;0.00;0.62;0.00;0.00;0.62;4.23;2.03;;;27.70;31.90;;;;;;2272717;61;20789;-66
2023/09/30 10:14:47;0.00;0.00;0.62;0.00;0.00;0.62;2.90;1.83;;;27.70;31.90;;;;;;2273111;61;20362;-64
2023/09/30 10:18:00;0.00;0.00;0.62;0.00;0.00;0.62;4.30;1.87;;;27.70;31.90;;;;;;2273091;61;20575;-66
2023/09/30 10:20:47;0.00;0.00;0.62;0.00;0.00;0.62;4.47;2.50;;;27.70;31.90;;;;;;2272982;61;20390;-66
2023/09/30 10:23:33;0.00;0.00;0.62;0.00;0.00;0.62;3.00;2.00;;;27.70;31.90;;;;;;2269688;61;20382;-65
2023/09/30 10:26:19;0.00;0.00;0.62;0.00;0.00;0.62;4.87;1.97;;;27.80;32.00;;;;;;2266755;61;20394;-64
2023/09/30 10:29:09;0.00;0.00;0.62;0.00;0.00;0.62;4.00;1.90;;;27.80;32.00;;;;;;2272801;61;20363;-65
2023/09/30 10:31:55;0.00;0.00;0.62;0.00;0.00;0.62;3.13;2.10;;;27.80;31.90;;;;;;2272837;61;20433;-66
2023/09/30 10:34:47;0.00;0.00;0.62;0.00;0.00;0.62;3.80;2.03;;;27.80;31.90;;;;;;2272963;61;20447;-64
2023/09/30 10:37:32;0.00;0.00;0.62;0.00;0.00;0.62;3.40;2.00;;;27.80;31.90;;;;;;2272843;61;20358;-68
2023/09/30 10:40:27;0.00;0.00;0.62;0.00;0.00;0.62;3.40;2.23;;;27.80;31.90;;;;;;2269510;61;20393;-66
2023/09/30 10:43:30;0.00;0.00;0.62;0.00;0.00;0.62;3.50;2.20;;;27.80;31.90;;;;;;2272822;61;20394;-65
2023/09/30 10:46:31;0.00;0.00;0.62;0.00;0.00;0.62;4.23;2.40;;;27.80;31.90;;;;;;2269623;61;20358;-65
2023/09/30 10:49:35;0.00;0.00;0.62;0.00;0.00;0.62;4.10;2.23;;;27.80;31.90;;;;;;2272472;61;20416;-64
2023/09/30 10:52:23;0.00;0.00;0.62;0.00;0.00;0.62;3.60;2.30;;;27.80;31.90;;;;;;2266864;61;20423;-65
2023/09/30 10:55:09;0.00;0.00;0.62;0.00;0.00;0.62;3.13;1.90;;;27.90;32.00;;;;;;2277167;60;20820;-65
2023/09/30 10:57:54;0.00;0.00;0.62;0.00;0.00;0.62;3.03;1.87;;;27.90;32.00;;;;;;2280736;60;20364;-65
2023/09/30 11:00:40;0.00;0.00;0.62;0.00;0.00;0.62;4.97;2.63;;;27.90;32.00;;;;;;2280997;60;20396;-66
2023/09/30 11:03:25;0.00;0.00;0.62;0.00;0.00;0.62;5.13;2.70;;;27.90;32.00;;;;;;2274779;60;20792;-70